Stretford, United Kingdom
Current Conditions -  °F | °C
As of 4:20 PM on Friday 24 Oct 2014 (Local Time) from EGCC Reporting Station
Broken Clouds Broken Clouds  
Wind Chill: 11°   Ceiling: 2800
Heat Index: 11°   Visibility: 6mi
Dew Point:   Wind: 12mph
Humidity: 82%   Direction: 290°WNW
Pressure: 29.85"   Gusts: NA
Location:  53.44°N, 2.32°W
Report Text: EGCC 241520Z 29010KT 9999 FEW017 SCT023 BKN028 11/08 Q1011
Loading
Personal Weather Stations






























Interactive Weather Map
Tropical Storm Tracking
New forecast layout! Learn more

10-Day Weather Forecast

Advertisements
Track Severe Weather on mobile